createdAt,value
2022-12-14T00:03:11.240Z,-6.08
2022-12-14T00:08:10.939Z,-5.94
2022-12-14T00:13:10.875Z,-5.69
2022-12-14T00:18:10.863Z,-5.49
2022-12-14T00:23:10.791Z,-5.44
2022-12-14T00:28:10.805Z,-5.08
2022-12-14T00:33:10.671Z,-4.62
2022-12-14T00:38:10.602Z,-4.26
2022-12-14T00:43:10.569Z,-4.04
2022-12-14T00:48:10.471Z,-3.71
2022-12-14T00:53:10.488Z,-3.53
2022-12-14T00:58:10.354Z,-3.47
2022-12-14T01:03:10.267Z,-3.53
2022-12-14T01:08:10.231Z,-3.56
2022-12-14T01:13:10.188Z,-3.56
2022-12-14T01:18:10.073Z,-3.60
2022-12-14T01:23:10.040Z,-3.61
2022-12-14T01:28:09.933Z,-3.57
2022-12-14T01:33:09.896Z,-3.61
2022-12-14T01:38:09.860Z,-3.54
2022-12-14T01:43:09.732Z,-3.54
2022-12-14T01:48:09.750Z,-3.53
2022-12-14T01:53:09.629Z,-3.54
2022-12-14T01:58:09.591Z,-3.60
2022-12-14T02:03:09.669Z,-3.53
2022-12-14T02:08:09.447Z,-3.49
2022-12-14T02:13:09.366Z,-3.50
2022-12-14T02:18:09.300Z,-3.50
2022-12-14T02:23:09.326Z,-3.50
2022-12-14T02:28:09.200Z,-3.54
2022-12-14T02:33:09.234Z,-3.54
2022-12-14T02:38:09.080Z,-3.56
2022-12-14T02:43:08.998Z,-3.62
2022-12-14T02:48:08.923Z,-3.60
2022-12-14T02:53:08.861Z,-3.54
2022-12-14T02:58:08.800Z,-3.51
2022-12-14T03:03:08.792Z,-3.54
2022-12-14T03:08:08.766Z,-3.46
2022-12-14T03:13:08.624Z,-3.47
2022-12-14T03:18:08.540Z,-3.44
2022-12-14T03:23:08.505Z,-3.41
2022-12-14T03:28:08.438Z,-3.46
2022-12-14T03:33:08.370Z,-3.41
2022-12-14T03:38:08.323Z,-3.41
2022-12-14T03:43:08.210Z,-3.38
2022-12-14T03:48:08.216Z,-3.35
2022-12-14T03:53:08.107Z,-3.33
2022-12-14T03:58:08.049Z,-3.31
2022-12-14T04:03:08.035Z,-3.29
2022-12-14T04:08:08.005Z,-3.26
2022-12-14T04:13:07.884Z,-3.28
2022-12-14T04:18:07.788Z,-3.23
2022-12-14T04:23:07.783Z,-3.26
2022-12-14T04:28:07.662Z,-3.26
2022-12-14T04:33:07.594Z,-3.31
2022-12-14T04:38:07.564Z,-3.29
2022-12-14T04:43:07.473Z,-3.28
2022-12-14T04:48:07.695Z,-3.25
2022-12-14T04:53:07.327Z,-3.22
2022-12-14T04:58:07.293Z,-3.29
2022-12-14T05:03:07.353Z,-3.23
2022-12-14T05:08:07.203Z,-3.15
2022-12-14T05:13:07.124Z,-3.13
2022-12-14T05:18:07.018Z,-3.13
2022-12-14T05:23:06.945Z,-3.14
2022-12-14T05:28:06.921Z,-3.18
2022-12-14T05:33:06.809Z,-3.23
2022-12-14T05:38:06.791Z,-3.23
2022-12-14T05:43:07.585Z,-3.23
2022-12-14T05:48:06.684Z,-3.22
2022-12-14T05:53:06.559Z,-3.25
2022-12-14T05:58:06.523Z,-3.22
2022-12-14T06:03:06.513Z,-3.22
2022-12-14T06:08:06.385Z,-3.25
2022-12-14T06:13:06.328Z,-3.23
2022-12-14T06:18:06.334Z,-3.18
2022-12-14T06:23:06.283Z,-3.18
2022-12-14T06:28:06.121Z,-3.20
2022-12-14T06:33:06.144Z,-3.15
2022-12-14T06:38:05.999Z,-3.15
2022-12-14T06:43:05.919Z,-2.87
2022-12-14T06:48:06.206Z,-1.21
2022-12-14T06:53:05.889Z,-2.35
2022-12-14T06:58:05.783Z,-2.71
2022-12-14T07:03:05.918Z,-2.81
2022-12-14T07:08:05.615Z,-2.82
2022-12-14T07:13:05.544Z,-2.79
2022-12-14T07:18:05.592Z,-2.75
2022-12-14T07:23:05.534Z,-2.78
2022-12-14T07:28:05.911Z,-2.69
2022-12-14T07:33:05.569Z,-2.60
2022-12-14T07:38:05.851Z,-2.51
2022-12-14T07:43:05.564Z,-2.50
2022-12-14T07:48:05.186Z,-2.42
2022-12-14T07:53:05.031Z,-2.29
2022-12-14T07:58:05.051Z,-2.16
2022-12-14T08:03:04.975Z,-2.10
2022-12-14T08:08:05.013Z,-2.02
2022-12-14T08:13:04.938Z,-1.93
2022-12-14T08:18:04.727Z,-1.85
2022-12-14T08:23:04.715Z,-1.74
2022-12-14T08:28:04.859Z,-1.67
2022-12-14T08:33:04.526Z,-1.48
2022-12-14T08:38:04.760Z,-1.36
2022-12-14T08:43:04.498Z,-1.31
2022-12-14T08:48:04.370Z,-1.18
2022-12-14T08:53:04.394Z,-1.17
2022-12-14T08:58:04.329Z,-1.02
2022-12-14T09:03:04.256Z,-0.77
2022-12-14T09:08:05.040Z,-0.75
2022-12-14T09:13:04.198Z,-0.59
2022-12-14T09:18:04.360Z,-0.33
2022-12-14T09:23:03.967Z,-0.15
2022-12-14T09:28:04.279Z,-0.12
2022-12-14T09:33:03.792Z,-0.13
2022-12-14T09:38:04.252Z,-0.12
2022-12-14T09:43:03.750Z,-0.19
2022-12-14T09:48:03.604Z,-0.06
2022-12-14T09:53:03.639Z,0.00
2022-12-14T09:58:03.470Z,-0.05
2022-12-14T10:03:06.829Z,-0.09
2022-12-14T10:08:03.409Z,0.10
2022-12-14T10:13:03.268Z,0.00
2022-12-14T10:18:03.487Z,-0.06
2022-12-14T10:23:03.349Z,0.12
2022-12-14T10:28:11.876Z,0.00
2022-12-14T10:33:04.033Z,0.10
2022-12-14T10:38:03.016Z,0.38
2022-12-14T10:43:02.907Z,0.38
2022-12-14T10:48:02.896Z,0.42
2022-12-14T10:53:02.773Z,0.53
2022-12-14T10:58:02.692Z,0.60
2022-12-14T11:03:02.771Z,0.71
2022-12-14T11:08:02.592Z,0.67
2022-12-14T11:13:02.483Z,0.42
2022-12-14T11:18:02.631Z,0.45
2022-12-14T11:23:02.395Z,0.43
2022-12-14T11:28:02.298Z,0.53
2022-12-14T11:33:02.218Z,0.53
2022-12-14T11:38:02.210Z,0.62
2022-12-14T11:43:02.130Z,0.48
2022-12-14T11:48:02.428Z,0.31
2022-12-14T11:53:06.334Z,0.23
2022-12-14T11:58:02.954Z,0.20
2022-12-14T12:03:01.945Z,0.13
2022-12-14T12:08:01.855Z,0.13
2022-12-14T12:13:01.815Z,0.23
2022-12-14T12:18:01.657Z,0.16
2022-12-14T12:23:01.921Z,0.21
2022-12-14T12:28:01.596Z,0.18
2022-12-14T12:33:01.521Z,0.27
2022-12-14T12:38:01.680Z,0.16
2022-12-14T12:43:01.352Z,0.16
2022-12-14T12:48:01.333Z,0.10
2022-12-14T12:53:03.968Z,0.03
2022-12-14T12:58:01.109Z,0.02
2022-12-14T13:03:01.138Z,0.07
2022-12-14T13:08:00.992Z,0.06
2022-12-14T13:13:00.949Z,0.03
2022-12-14T13:18:00.839Z,0.06
2022-12-14T13:23:10.221Z,0.03
2022-12-14T13:28:01.768Z,-0.11
2022-12-14T13:33:00.731Z,-0.09
2022-12-14T13:38:00.676Z,-0.06
2022-12-14T13:43:00.544Z,0.02
2022-12-14T13:48:00.580Z,0.15
2022-12-14T13:53:00.405Z,0.18
2022-12-14T13:58:00.762Z,0.21
2022-12-14T14:03:00.484Z,0.20
2022-12-14T14:08:00.237Z,0.10
2022-12-14T14:13:00.161Z,-0.09
2022-12-14T14:18:00.176Z,-0.18
2022-12-14T14:22:59.990Z,-0.22
2022-12-14T14:27:59.941Z,-0.22
2022-12-14T14:33:35.818Z,-0.26
2022-12-14T14:38:00.817Z,-0.24
2022-12-14T14:42:59.908Z,-0.24
2022-12-14T14:47:59.832Z,-0.16
2022-12-14T14:52:59.748Z,-0.15
2022-12-14T14:57:59.546Z,-0.18
2022-12-14T15:02:59.652Z,-0.33
2022-12-14T15:07:59.423Z,-0.26
2022-12-14T15:12:59.471Z,-0.23
2022-12-14T15:17:59.434Z,-0.22
2022-12-14T15:22:59.202Z,-0.29
2022-12-14T15:29:40.234Z,-0.24
2022-12-14T15:34:38.807Z,-0.30
2022-12-14T15:39:38.654Z,-0.30
2022-12-14T15:44:38.962Z,-0.30
2022-12-14T15:49:38.532Z,-0.31
2022-12-14T15:54:38.462Z,-0.33
2022-12-14T15:59:40.596Z,-0.37
2022-12-14T16:04:38.533Z,-0.36
2022-12-14T16:09:38.277Z,-0.34
2022-12-14T16:14:38.189Z,-0.34
2022-12-14T16:19:58.120Z,-0.42
2022-12-14T16:24:39.128Z,-0.45
2022-12-14T16:29:39.433Z,-0.45
2022-12-14T16:34:44.343Z,-0.51
2022-12-14T16:39:37.877Z,-0.54
2022-12-14T16:44:37.795Z,-0.55
2022-12-14T16:49:37.745Z,-0.57
2022-12-14T16:54:37.692Z,-0.62
2022-12-14T16:59:37.682Z,-0.66
2022-12-14T17:04:38.524Z,-0.69
2022-12-14T17:09:37.766Z,-0.69
2022-12-14T17:14:51.677Z,-0.68
2022-12-14T17:20:07.884Z,-0.69
2022-12-14T17:24:38.360Z,-0.66
2022-12-14T17:29:37.388Z,-0.75
2022-12-14T17:34:37.416Z,-0.81
2022-12-14T17:39:37.215Z,-0.80
2022-12-14T17:44:38.796Z,-0.83
2022-12-14T17:49:37.095Z,-0.81
2022-12-14T17:54:36.942Z,-0.78
2022-12-14T17:59:39.846Z,-0.92
2022-12-14T18:04:36.869Z,-1.12
2022-12-14T18:09:36.748Z,-1.31
2022-12-14T18:14:36.940Z,-1.54
2022-12-14T18:19:36.610Z,-1.63
2022-12-14T18:24:36.525Z,-1.74
2022-12-14T18:29:36.532Z,-1.74
2022-12-14T18:34:36.445Z,-1.64
2022-12-14T18:39:36.426Z,-1.48
2022-12-14T18:44:36.320Z,-1.38
2022-12-14T18:49:36.235Z,-1.54
2022-12-14T18:54:36.143Z,-1.56
2022-12-14T18:59:42.110Z,-1.56
2022-12-14T19:04:37.059Z,-1.59
2022-12-14T19:09:36.123Z,-1.46
2022-12-14T19:14:35.965Z,-1.56
2022-12-14T19:19:42.670Z,-1.63
2022-12-14T19:24:37.020Z,-1.72
2022-12-14T19:29:35.874Z,-1.75
2022-12-14T19:34:35.666Z,-1.64
2022-12-14T19:39:35.658Z,-1.62
2022-12-14T19:44:35.581Z,-1.60
2022-12-14T19:49:35.504Z,-1.49
2022-12-14T19:54:35.429Z,-1.43
2022-12-14T19:59:35.426Z,-1.48
2022-12-14T20:04:35.490Z,-1.56
2022-12-14T20:09:35.290Z,-1.60
2022-12-14T20:14:35.137Z,-1.66
2022-12-14T20:19:35.205Z,-1.64
2022-12-14T20:24:35.025Z,-1.62
2022-12-14T20:29:35.008Z,-1.77
2022-12-14T20:34:34.882Z,-1.95
2022-12-14T20:39:34.863Z,-2.08
2022-12-14T20:44:34.905Z,-2.42
2022-12-14T20:49:34.768Z,-2.61
2022-12-14T20:54:38.633Z,-2.93
2022-12-14T20:59:34.568Z,-2.94
2022-12-14T21:04:34.480Z,-3.08
2022-12-14T21:09:37.280Z,-3.07
2022-12-14T21:14:34.438Z,-3.07
2022-12-14T21:19:34.310Z,-3.22
2022-12-14T21:25:01.553Z,-3.43
2022-12-14T21:29:36.298Z,-3.41
2022-12-14T21:34:34.142Z,-3.67
2022-12-14T21:39:34.343Z,-3.75
2022-12-14T21:44:33.993Z,-3.93
2022-12-14T21:49:33.963Z,-4.02
2022-12-14T21:54:35.335Z,-3.94
2022-12-14T21:59:35.312Z,-4.08
2022-12-14T22:04:37.977Z,-4.14
2022-12-14T22:10:01.441Z,-4.26
2022-12-14T22:14:33.758Z,-4.18
2022-12-14T22:19:33.555Z,-4.20
2022-12-14T22:24:33.488Z,-4.30
2022-12-14T22:29:33.554Z,-4.30
2022-12-14T22:34:33.401Z,-4.57
2022-12-14T22:39:33.560Z,-4.57
2022-12-14T22:44:33.781Z,-4.68
2022-12-14T22:49:33.290Z,-4.91
2022-12-14T22:54:33.247Z,-4.82
2022-12-14T22:59:33.085Z,-4.80
2022-12-14T23:04:33.035Z,-4.87
2022-12-14T23:09:33.030Z,-4.95
2022-12-14T23:14:32.977Z,-4.97
2022-12-14T23:19:32.771Z,-4.98
2022-12-14T23:24:32.787Z,-5.04
2022-12-14T23:29:32.796Z,-5.03
2022-12-14T23:34:32.906Z,-5.12
2022-12-14T23:39:33.108Z,-5.17
2022-12-14T23:44:32.532Z,-5.31
2022-12-14T23:49:32.454Z,-5.30
2022-12-14T23:54:32.345Z,-5.45
2022-12-14T23:59:32.893Z,-5.31
